createdAt,value
2023-01-29T00:00:07.208Z,98.80
2023-01-29T00:03:09.320Z,99.15
2023-01-29T00:06:25.222Z,98.93
2023-01-29T00:09:35.269Z,98.67
2023-01-29T00:12:50.240Z,99.08
2023-01-29T00:15:59.245Z,99.06
2023-01-29T00:19:08.219Z,98.96
2023-01-29T00:22:30.244Z,99.42
2023-01-29T00:25:38.856Z,98.38
2023-01-29T00:28:53.279Z,98.68
2023-01-29T00:32:02.032Z,99.03
2023-01-29T00:35:10.259Z,98.65
2023-01-29T00:38:19.236Z,98.71
2023-01-29T00:41:28.244Z,99.09
2023-01-29T00:44:36.797Z,98.86
2023-01-29T00:47:51.259Z,99.14
2023-01-29T00:51:08.226Z,99.47
2023-01-29T00:54:23.227Z,99.30
2023-01-29T00:57:33.614Z,99.84
2023-01-29T01:00:42.281Z,100.00
2023-01-29T01:03:51.126Z,99.85
2023-01-29T01:07:00.222Z,99.48
2023-01-29T01:10:20.217Z,99.77
2023-01-29T01:13:29.302Z,100.00
2023-01-29T01:16:38.277Z,100.00
2023-01-29T01:19:46.868Z,100.00
2023-01-29T01:23:08.198Z,100.00
2023-01-29T01:26:17.198Z,100.00
2023-01-29T01:29:25.818Z,100.00
2023-01-29T01:32:40.249Z,100.00
2023-01-29T01:35:42.235Z,100.00
2023-01-29T01:38:57.231Z,100.00
2023-01-29T01:42:11.642Z,100.00
2023-01-29T01:45:43.231Z,100.00
2023-01-29T01:48:48.051Z,100.00
2023-01-29T01:52:03.198Z,100.00
2023-01-29T01:55:21.229Z,100.00
2023-01-29T01:58:31.989Z,100.00
2023-01-29T02:01:49.288Z,100.00
2023-01-29T02:04:51.917Z,100.00
2023-01-29T02:08:07.214Z,100.00
2023-01-29T02:11:09.587Z,100.00
2023-01-29T02:14:24.199Z,100.00
2023-01-29T02:17:35.270Z,100.00
2023-01-29T02:21:10.507Z,100.00
2023-01-29T02:24:59.188Z,100.00
2023-01-29T02:28:36.221Z,100.00
2023-01-29T02:31:50.533Z,100.00
2023-01-29T02:35:14.206Z,100.00
2023-01-29T02:38:28.625Z,100.00
2023-01-29T02:42:03.215Z,100.00
2023-01-29T02:45:42.250Z,100.00
2023-01-29T02:49:11.214Z,100.00
2023-01-29T02:52:35.207Z,100.00
2023-01-29T02:55:49.774Z,100.00
2023-01-29T03:11:08.193Z,100.00
2023-01-29T03:14:32.189Z,100.00
2023-01-29T03:17:40.366Z,100.00
2023-01-29T03:21:04.179Z,100.00
2023-01-29T03:28:11.185Z,100.00
2023-01-29T03:31:28.292Z,100.00
2023-01-29T03:34:53.266Z,100.00
2023-01-29T03:42:25.209Z,100.00
2023-01-29T03:46:15.205Z,100.00
2023-01-29T03:49:50.187Z,100.00
2023-01-29T03:53:30.183Z,100.00
2023-01-29T03:56:41.794Z,100.00
2023-01-29T04:00:22.200Z,100.00
2023-01-29T04:03:45.285Z,100.00
2023-01-29T04:06:58.519Z,100.00
2023-01-29T04:10:13.311Z,100.00
2023-01-29T04:13:24.945Z,100.00
2023-01-29T04:16:44.267Z,100.00
2023-01-29T04:20:00.207Z,100.00
2023-01-29T04:23:24.092Z,100.00
2023-01-29T04:27:00.193Z,100.00
2023-01-29T04:30:24.214Z,100.00
2023-01-29T04:33:49.494Z,100.00
2023-01-29T04:37:13.201Z,100.00
2023-01-29T04:40:44.176Z,100.00
2023-01-29T04:44:06.167Z,100.00
2023-01-29T04:47:50.502Z,100.00
2023-01-29T04:51:30.191Z,100.00
2023-01-29T04:55:16.185Z,100.00
2023-01-29T04:58:43.709Z,100.00
2023-01-29T05:01:59.254Z,100.00
2023-01-29T05:05:09.601Z,100.00
2023-01-29T05:08:33.211Z,100.00
2023-01-29T05:11:43.200Z,100.00
2023-01-29T05:14:54.399Z,100.00
2023-01-29T05:18:10.196Z,100.00
2023-01-29T05:21:19.183Z,100.00
2023-01-29T05:24:35.183Z,100.00
2023-01-29T05:27:58.182Z,100.00
2023-01-29T05:31:13.311Z,100.00
2023-01-29T05:34:22.033Z,100.00
2023-01-29T05:37:30.191Z,100.00
2023-01-29T05:40:46.219Z,100.00
2023-01-29T05:43:48.147Z,100.00
2023-01-29T05:47:03.173Z,99.32
2023-01-29T05:50:13.319Z,99.06
2023-01-29T05:53:29.738Z,98.65
2023-01-29T05:56:38.163Z,98.58
2023-01-29T05:59:53.163Z,98.76
2023-01-29T06:02:55.259Z,98.76
2023-01-29T06:06:10.155Z,99.51
2023-01-29T06:09:18.207Z,99.68
2023-01-29T06:12:27.715Z,99.23
2023-01-29T06:19:28.195Z,100.00
2023-01-29T06:22:43.176Z,100.00
2023-01-29T06:29:36.168Z,97.02
2023-01-29T06:45:22.234Z,95.80
2023-01-29T06:48:31.029Z,95.49
2023-01-29T06:51:46.167Z,96.11
2023-01-29T06:54:55.632Z,96.59
2023-01-29T07:05:47.194Z,97.50
2023-01-29T07:08:56.761Z,97.48
2023-01-29T07:12:11.165Z,97.49
2023-01-29T07:15:27.149Z,97.71
2023-01-29T07:18:35.802Z,97.38
2023-01-29T07:21:50.168Z,97.46
2023-01-29T07:24:52.179Z,97.32
2023-01-29T07:28:08.190Z,97.08
2023-01-29T07:31:30.339Z,97.11
2023-01-29T07:34:45.153Z,97.24
2023-01-29T07:37:53.873Z,97.15
2023-01-29T07:41:03.223Z,96.97
2023-01-29T07:44:18.158Z,97.10
2023-01-29T07:51:49.163Z,97.36
2023-01-29T07:55:04.173Z,97.32
2023-01-29T07:58:13.043Z,97.10
2023-01-29T08:01:22.176Z,96.47
2023-01-29T08:04:37.167Z,96.25
2023-01-29T08:07:51.485Z,96.18
2023-01-29T08:11:12.184Z,96.21
2023-01-29T08:14:20.717Z,95.87
2023-01-29T08:17:29.193Z,95.72
2023-01-29T08:20:45.162Z,95.51
2023-01-29T08:23:47.168Z,95.45
2023-01-29T08:27:02.176Z,94.93
2023-01-29T08:30:05.939Z,95.04
2023-01-29T08:33:39.954Z,94.31
2023-01-29T08:36:55.164Z,94.13
2023-01-29T08:40:04.206Z,94.24
2023-01-29T08:43:20.163Z,93.47
2023-01-29T08:46:28.170Z,93.19
2023-01-29T08:49:36.772Z,93.55
2023-01-29T08:52:52.156Z,93.01
2023-01-29T08:55:54.568Z,93.27
2023-01-29T08:59:09.183Z,93.69
2023-01-29T09:02:24.162Z,93.58
2023-01-29T09:05:26.116Z,93.53
2023-01-29T09:08:41.136Z,93.69
2023-01-29T09:11:43.007Z,93.89
2023-01-29T09:14:58.151Z,93.53
2023-01-29T09:18:10.189Z,93.67
2023-01-29T09:21:19.124Z,92.75
2023-01-29T09:24:28.166Z,92.71
2023-01-29T09:27:37.363Z,92.65
2023-01-29T09:30:53.246Z,92.29
2023-01-29T09:34:08.434Z,91.83
2023-01-29T09:37:23.162Z,91.82
2023-01-29T09:40:54.153Z,91.17
2023-01-29T09:44:17.151Z,91.36
2023-01-29T09:47:21.302Z,90.23
2023-01-29T09:50:46.136Z,90.37
2023-01-29T09:54:28.145Z,90.09
2023-01-29T09:58:15.160Z,89.73
2023-01-29T10:01:59.466Z,89.90
2023-01-29T10:05:24.062Z,89.16
2023-01-29T10:09:06.143Z,89.80
2023-01-29T10:12:59.209Z,89.26
2023-01-29T10:16:29.125Z,88.55
2023-01-29T10:19:52.164Z,87.58
2023-01-29T10:23:30.629Z,87.59
2023-01-29T10:26:40.190Z,87.45
2023-01-29T10:29:53.352Z,87.41
2023-01-29T10:33:24.122Z,87.08
2023-01-29T10:36:36.285Z,86.92
2023-01-29T10:39:52.128Z,85.86
2023-01-29T10:43:06.125Z,86.20
2023-01-29T10:46:27.176Z,86.06
2023-01-29T10:50:06.138Z,86.54
2023-01-29T10:53:36.145Z,86.62
2023-01-29T10:57:03.128Z,86.17
2023-01-29T11:15:50.135Z,85.20
2023-01-29T11:23:01.121Z,85.75
2023-01-29T11:30:07.199Z,84.78
2023-01-29T11:37:45.175Z,83.26
2023-01-29T11:41:21.115Z,83.13
2023-01-29T11:44:31.489Z,82.14
2023-01-29T11:48:18.130Z,81.85
2023-01-29T11:52:06.249Z,80.95
2023-01-29T11:55:40.962Z,80.98
2023-01-29T12:03:28.129Z,80.47
2023-01-29T12:06:48.166Z,80.40
2023-01-29T12:09:59.031Z,80.56
2023-01-29T12:13:12.149Z,79.80
2023-01-29T12:16:50.256Z,79.99
2023-01-29T12:20:19.392Z,79.22
2023-01-29T12:23:39.190Z,79.34
2023-01-29T12:27:01.134Z,78.75
2023-01-29T12:30:34.391Z,79.16
2023-01-29T12:34:10.515Z,78.28
2023-01-29T12:37:51.172Z,78.08
2023-01-29T12:41:11.120Z,77.34
2023-01-29T12:44:33.545Z,76.51
2023-01-29T12:47:54.128Z,77.44
2023-01-29T12:51:18.794Z,75.92
2023-01-29T12:54:40.119Z,76.01
2023-01-29T12:58:04.433Z,76.81
2023-01-29T13:01:31.125Z,76.21
2023-01-29T13:04:55.109Z,76.24
2023-01-29T13:12:23.129Z,75.29
2023-01-29T13:15:46.207Z,74.90
2023-01-29T13:19:06.139Z,75.31
2023-01-29T13:22:31.121Z,75.85
2023-01-29T13:25:47.119Z,75.25
2023-01-29T13:32:48.446Z,74.76
2023-01-29T13:40:09.130Z,75.00
2023-01-29T13:43:28.441Z,73.65
2023-01-29T13:46:41.884Z,73.60
2023-01-29T13:50:14.124Z,72.62
2023-01-29T13:53:34.205Z,73.36
2023-01-29T13:57:07.574Z,73.56
2023-01-29T14:00:28.432Z,73.58
2023-01-29T14:04:03.674Z,73.29
2023-01-29T14:07:51.093Z,72.27
2023-01-29T14:11:15.753Z,73.08
2023-01-29T14:14:55.117Z,74.05
2023-01-29T14:18:13.161Z,73.83
2023-01-29T14:21:29.726Z,74.41
2023-01-29T14:28:37.126Z,74.68
2023-01-29T14:32:07.445Z,75.54
2023-01-29T14:35:34.108Z,76.26
2023-01-29T14:38:51.829Z,76.49
2023-01-29T14:42:03.122Z,77.20
2023-01-29T14:45:35.168Z,77.83
2023-01-29T14:48:48.832Z,78.59
2023-01-29T14:51:58.393Z,78.61
2023-01-29T14:55:36.583Z,78.98
2023-01-29T14:58:49.210Z,79.29
2023-01-29T15:02:01.111Z,79.88
2023-01-29T15:05:36.381Z,79.79
2023-01-29T15:09:06.129Z,80.24
2023-01-29T15:12:33.167Z,79.90
2023-01-29T15:16:09.157Z,80.01
2023-01-29T15:19:28.876Z,79.79
2023-01-29T15:22:51.115Z,79.60
2023-01-29T15:26:06.355Z,80.17
2023-01-29T15:29:31.077Z,79.44
2023-01-29T15:32:48.051Z,79.85
2023-01-29T15:36:11.479Z,80.35
2023-01-29T15:39:23.288Z,80.53
2023-01-29T15:42:53.118Z,80.90
2023-01-29T15:46:17.385Z,80.67
2023-01-29T15:49:46.469Z,80.77
2023-01-29T15:52:58.322Z,81.06
2023-01-29T15:56:08.102Z,81.54
2023-01-29T15:59:29.084Z,81.79
2023-01-29T16:06:47.111Z,81.62
2023-01-29T16:10:06.181Z,81.41
2023-01-29T16:13:48.172Z,81.71
2023-01-29T16:17:04.562Z,82.09
2023-01-29T16:20:38.511Z,82.19
2023-01-29T16:23:43.693Z,82.19
2023-01-29T16:39:12.344Z,82.04
2023-01-29T16:42:32.415Z,82.63
2023-01-29T16:45:41.929Z,82.30
2023-01-29T16:48:58.531Z,81.99
2023-01-29T16:52:41.498Z,82.58
2023-01-29T16:55:59.094Z,83.17
2023-01-29T16:59:30.185Z,83.34
2023-01-29T17:02:46.094Z,83.91
2023-01-29T17:05:49.875Z,83.53
2023-01-29T17:09:08.467Z,84.00
2023-01-29T17:12:26.461Z,83.44
2023-01-29T17:15:43.621Z,83.93
2023-01-29T17:18:53.081Z,83.83
2023-01-29T17:22:09.085Z,84.26
2023-01-29T17:29:10.505Z,84.66
2023-01-29T17:32:20.009Z,84.95
2023-01-29T17:35:42.541Z,84.80
2023-01-29T17:38:51.806Z,84.58
2023-01-29T17:42:03.551Z,84.39
2023-01-29T17:45:14.044Z,84.43
2023-01-29T17:48:33.556Z,83.75
2023-01-29T17:51:51.927Z,83.64
2023-01-29T17:55:01.418Z,84.06
2023-01-29T17:58:18.247Z,84.51
2023-01-29T18:01:34.616Z,84.20
2023-01-29T18:04:44.103Z,84.74
2023-01-29T18:07:54.530Z,84.84
2023-01-29T18:11:04.276Z,85.23
2023-01-29T18:14:15.730Z,85.16
2023-01-29T18:17:32.632Z,85.73
2023-01-29T18:20:45.096Z,85.72
2023-01-29T18:23:54.496Z,86.06
2023-01-29T18:27:12.485Z,85.73
2023-01-29T18:30:22.621Z,85.05
2023-01-29T18:33:44.418Z,85.23
2023-01-29T18:37:01.076Z,85.25
2023-01-29T18:40:11.401Z,84.88
2023-01-29T18:43:20.979Z,84.53
2023-01-29T18:46:37.459Z,84.70
2023-01-29T18:49:48.084Z,84.83
2023-01-29T18:52:58.016Z,85.19
2023-01-29T18:56:15.067Z,85.52
2023-01-29T18:59:32.449Z,85.75
2023-01-29T19:02:43.044Z,85.07
2023-01-29T19:05:59.541Z,85.58
2023-01-29T19:09:09.505Z,85.91
2023-01-29T19:12:28.644Z,85.84
2023-01-29T19:15:48.070Z,85.20
2023-01-29T19:18:57.619Z,85.50
2023-01-29T19:22:13.533Z,85.43
2023-01-29T19:25:24.541Z,86.14
2023-01-29T19:28:34.123Z,85.55
2023-01-29T19:31:51.050Z,85.36
2023-01-29T19:35:08.808Z,85.63
2023-01-29T19:38:21.700Z,85.47
2023-01-29T19:41:38.524Z,86.05
2023-01-29T19:44:42.418Z,85.95
2023-01-29T19:47:59.115Z,85.70
2023-01-29T19:51:13.526Z,85.56
2023-01-29T19:54:23.795Z,86.10
2023-01-29T19:57:42.057Z,85.98
2023-01-29T20:00:44.832Z,85.77
2023-01-29T20:04:04.271Z,85.81
2023-01-29T20:07:14.039Z,86.00
2023-01-29T20:14:22.041Z,86.03
2023-01-29T20:17:32.068Z,86.04
2023-01-29T20:20:41.518Z,86.56
2023-01-29T20:23:59.494Z,86.62
2023-01-29T20:27:02.355Z,86.99
2023-01-29T20:30:19.748Z,87.03
2023-01-29T20:33:29.537Z,87.33
2023-01-29T20:36:44.658Z,86.87
2023-01-29T20:40:01.442Z,86.44
2023-01-29T20:54:07.550Z,87.05
2023-01-29T21:13:02.419Z,87.60
2023-01-29T21:16:18.449Z,87.66
2023-01-29T21:19:28.092Z,88.01
2023-01-29T21:22:37.935Z,87.66
2023-01-29T21:25:54.323Z,87.79
2023-01-29T21:29:03.601Z,87.70
2023-01-29T21:32:18.389Z,87.83
2023-01-29T21:35:40.132Z,87.91
2023-01-29T21:38:49.152Z,88.02
2023-01-29T21:42:04.369Z,87.92
2023-01-29T21:45:07.537Z,87.68
2023-01-29T21:48:22.024Z,87.69
2023-01-29T21:51:38.020Z,87.71
2023-01-29T21:54:47.138Z,87.76
2023-01-29T21:58:02.026Z,88.34
2023-01-29T22:01:35.162Z,88.57
2023-01-29T22:04:39.101Z,88.28
2023-01-29T22:11:58.072Z,88.69
2023-01-29T22:15:14.030Z,88.90
2023-01-29T22:18:22.849Z,88.90
2023-01-29T22:21:30.989Z,88.31
2023-01-29T22:24:39.582Z,88.98
2023-01-29T22:27:54.011Z,89.27
2023-01-29T22:31:11.012Z,89.47
2023-01-29T22:34:32.992Z,89.40
2023-01-29T22:37:48.057Z,89.13
2023-01-29T22:41:04.000Z,89.13
2023-01-29T22:44:13.020Z,88.38
2023-01-29T22:47:28.028Z,88.84
2023-01-29T22:50:44.043Z,88.71
2023-01-29T22:54:02.025Z,88.52
2023-01-29T22:57:13.172Z,88.74
2023-01-29T23:00:28.036Z,88.46
2023-01-29T23:03:30.924Z,88.18
2023-01-29T23:06:45.984Z,87.90
2023-01-29T23:09:55.229Z,87.87
2023-01-29T23:13:04.032Z,88.16
2023-01-29T23:16:21.054Z,87.87
2023-01-29T23:19:23.135Z,87.80
2023-01-29T23:22:38.057Z,87.47
2023-01-29T23:25:39.980Z,88.09
2023-01-29T23:28:55.019Z,87.83
2023-01-29T23:32:03.812Z,88.01
2023-01-29T23:35:19.037Z,88.07
2023-01-29T23:38:34.024Z,87.84
2023-01-29T23:41:36.197Z,88.37
2023-01-29T23:44:51.041Z,88.67
2023-01-29T23:47:59.651Z,89.31
2023-01-29T23:51:13.996Z,89.83
2023-01-29T23:54:16.571Z,90.08
2023-01-29T23:57:30.994Z,89.98
